sensor_id;sensor_type;location;lat;lon;timestamp;temperature;humidity
17174;DHT22;8702;48.130;-1.696;2023-05-07T00:01:15;17.30;99.90
17174;DHT22;8702;48.130;-1.696;2023-05-07T00:03:46;17.20;99.90
17174;DHT22;8702;48.130;-1.696;2023-05-07T00:06:14;17.20;99.90
17174;DHT22;8702;48.130;-1.696;2023-05-07T00:08:45;17.10;99.90
17174;DHT22;8702;48.130;-1.696;2023-05-07T00:11:11;17.10;99.90
17174;DHT22;8702;48.130;-1.696;2023-05-07T00:13:39;17.10;99.90
17174;DHT22;8702;48.130;-1.696;2023-05-07T00:16:06;17.10;99.90
17174;DHT22;8702;48.130;-1.696;2023-05-07T00:18:33;17.00;99.90
17174;DHT22;8702;48.130;-1.696;2023-05-07T00:21:02;17.00;99.90
17174;DHT22;8702;48.130;-1.696;2023-05-07T00:23:32;16.90;99.90
17174;DHT22;8702;48.130;-1.696;2023-05-07T00:25:59;16.90;99.90
17174;DHT22;8702;48.130;-1.696;2023-05-07T00:28:26;16.80;99.90
17174;DHT22;8702;48.130;-1.696;2023-05-07T00:30:56;16.90;99.90
17174;DHT22;8702;48.130;-1.696;2023-05-07T00:33:26;17.00;99.90
17174;DHT22;8702;48.130;-1.696;2023-05-07T00:35:53;17.00;99.90
17174;DHT22;8702;48.130;-1.696;2023-05-07T00:38:22;17.10;99.90
17174;DHT22;8702;48.130;-1.696;2023-05-07T00:40:49;17.10;99.90
17174;DHT22;8702;48.130;-1.696;2023-05-07T00:43:17;17.10;99.90
17174;DHT22;8702;48.130;-1.696;2023-05-07T00:45:47;17.00;99.90
17174;DHT22;8702;48.130;-1.696;2023-05-07T00:48:16;17.00;99.90
17174;DHT22;8702;48.130;-1.696;2023-05-07T00:50:46;16.90;99.90
17174;DHT22;8702;48.130;-1.696;2023-05-07T00:53:14;16.90;99.90
17174;DHT22;8702;48.130;-1.696;2023-05-07T00:55:42;17.00;99.90
17174;DHT22;8702;48.130;-1.696;2023-05-07T00:58:09;17.00;99.90
17174;DHT22;8702;48.130;-1.696;2023-05-07T01:00:40;17.00;99.90
17174;DHT22;8702;48.130;-1.696;2023-05-07T01:03:08;16.70;99.90
17174;DHT22;8702;48.130;-1.696;2023-05-07T01:05:38;16.90;99.90
17174;DHT22;8702;48.130;-1.696;2023-05-07T01:08:06;16.80;99.90
17174;DHT22;8702;48.130;-1.696;2023-05-07T01:10:34;16.90;99.90
17174;DHT22;8702;48.130;-1.696;2023-05-07T01:13:02;16.80;99.90
17174;DHT22;8702;48.130;-1.696;2023-05-07T01:15:30;16.90;99.90
17174;DHT22;8702;48.130;-1.696;2023-05-07T01:17:57;16.80;99.90
17174;DHT22;8702;48.130;-1.696;2023-05-07T01:20:24;16.90;99.90
17174;DHT22;8702;48.130;-1.696;2023-05-07T01:22:53;16.90;99.90
17174;DHT22;8702;48.130;-1.696;2023-05-07T01:25:21;16.70;99.90
17174;DHT22;8702;48.130;-1.696;2023-05-07T01:27:58;16.60;99.90
17174;DHT22;8702;48.130;-1.696;2023-05-07T01:30:27;16.60;99.90
17174;DHT22;8702;48.130;-1.696;2023-05-07T01:33:00;16.60;99.90
17174;DHT22;8702;48.130;-1.696;2023-05-07T01:35:36;16.60;99.90
17174;DHT22;8702;48.130;-1.696;2023-05-07T01:38:09;16.50;99.90
17174;DHT22;8702;48.130;-1.696;2023-05-07T01:40:39;16.60;99.90
17174;DHT22;8702;48.130;-1.696;2023-05-07T01:43:07;16.60;99.90
17174;DHT22;8702;48.130;-1.696;2023-05-07T01:45:35;16.50;99.90
17174;DHT22;8702;48.130;-1.696;2023-05-07T01:48:10;16.60;99.90
17174;DHT22;8702;48.130;-1.696;2023-05-07T01:50:38;16.60;99.90
17174;DHT22;8702;48.130;-1.696;2023-05-07T01:53:08;16.60;99.90
17174;DHT22;8702;48.130;-1.696;2023-05-07T01:55:35;16.60;99.90
17174;DHT22;8702;48.130;-1.696;2023-05-07T01:58:03;16.70;99.90
17174;DHT22;8702;48.130;-1.696;2023-05-07T02:00:30;16.70;99.90
17174;DHT22;8702;48.130;-1.696;2023-05-07T02:02:57;16.60;99.90
17174;DHT22;8702;48.130;-1.696;2023-05-07T02:05:24;16.50;99.90
17174;DHT22;8702;48.130;-1.696;2023-05-07T02:07:51;16.40;99.90
17174;DHT22;8702;48.130;-1.696;2023-05-07T02:10:19;16.40;99.90
17174;DHT22;8702;48.130;-1.696;2023-05-07T02:12:46;16.40;99.90
17174;DHT22;8702;48.130;-1.696;2023-05-07T02:15:13;16.40;99.90
17174;DHT22;8702;48.130;-1.696;2023-05-07T02:17:58;16.50;99.90
17174;DHT22;8702;48.130;-1.696;2023-05-07T02:20:26;16.50;99.90
17174;DHT22;8702;48.130;-1.696;2023-05-07T02:22:52;16.50;99.90
17174;DHT22;8702;48.130;-1.696;2023-05-07T02:25:21;16.50;99.90
17174;DHT22;8702;48.130;-1.696;2023-05-07T02:27:48;16.50;99.90
17174;DHT22;8702;48.130;-1.696;2023-05-07T02:30:15;16.50;99.90
17174;DHT22;8702;48.130;-1.696;2023-05-07T02:32:42;16.50;99.90
17174;DHT22;8702;48.130;-1.696;2023-05-07T02:35:09;16.40;99.90
17174;DHT22;8702;48.130;-1.696;2023-05-07T02:37:36;16.40;99.90
17174;DHT22;8702;48.130;-1.696;2023-05-07T02:40:04;16.40;99.90
17174;DHT22;8702;48.130;-1.696;2023-05-07T02:42:33;16.40;99.90
17174;DHT22;8702;48.130;-1.696;2023-05-07T02:45:00;16.40;99.90
17174;DHT22;8702;48.130;-1.696;2023-05-07T02:47:27;16.40;99.90
17174;DHT22;8702;48.130;-1.696;2023-05-07T02:49:54;16.50;99.90
17174;DHT22;8702;48.130;-1.696;2023-05-07T02:52:21;16.50;99.90
17174;DHT22;8702;48.130;-1.696;2023-05-07T02:54:48;16.50;99.90
17174;DHT22;8702;48.130;-1.696;2023-05-07T02:57:15;16.50;99.90
17174;DHT22;8702;48.130;-1.696;2023-05-07T02:59:43;16.50;99.90
17174;DHT22;8702;48.130;-1.696;2023-05-07T03:02:10;16.50;99.90
17174;DHT22;8702;48.130;-1.696;2023-05-07T03:04:38;16.50;99.90
17174;DHT22;8702;48.130;-1.696;2023-05-07T03:07:05;16.60;99.90
17174;DHT22;8702;48.130;-1.696;2023-05-07T03:09:32;16.50;99.90
17174;DHT22;8702;48.130;-1.696;2023-05-07T03:11:59;16.50;99.90
17174;DHT22;8702;48.130;-1.696;2023-05-07T03:14:27;16.50;99.90
17174;DHT22;8702;48.130;-1.696;2023-05-07T03:16:57;16.40;99.90
17174;DHT22;8702;48.130;-1.696;2023-05-07T03:19:23;16.30;99.90
17174;DHT22;8702;48.130;-1.696;2023-05-07T03:21:51;16.30;99.90
17174;DHT22;8702;48.130;-1.696;2023-05-07T03:24:18;16.20;99.90
17174;DHT22;8702;48.130;-1.696;2023-05-07T03:26:45;16.20;99.90
17174;DHT22;8702;48.130;-1.696;2023-05-07T03:29:12;16.20;99.90
17174;DHT22;8702;48.130;-1.696;2023-05-07T03:31:39;16.20;99.90
17174;DHT22;8702;48.130;-1.696;2023-05-07T03:34:07;16.10;99.90
17174;DHT22;8702;48.130;-1.696;2023-05-07T03:36:34;16.10;99.90
17174;DHT22;8702;48.130;-1.696;2023-05-07T03:39:01;16.10;99.90
17174;DHT22;8702;48.130;-1.696;2023-05-07T03:41:28;16.10;99.90
17174;DHT22;8702;48.130;-1.696;2023-05-07T03:43:55;16.00;99.90
17174;DHT22;8702;48.130;-1.696;2023-05-07T03:46:22;16.10;99.90
17174;DHT22;8702;48.130;-1.696;2023-05-07T03:48:51;16.10;99.90
17174;DHT22;8702;48.130;-1.696;2023-05-07T03:51:20;16.00;99.90
17174;DHT22;8702;48.130;-1.696;2023-05-07T03:53:47;16.00;99.90
17174;DHT22;8702;48.130;-1.696;2023-05-07T03:56:14;15.90;99.90
17174;DHT22;8702;48.130;-1.696;2023-05-07T03:58:41;16.00;99.90
17174;DHT22;8702;48.130;-1.696;2023-05-07T04:01:08;16.00;99.90
17174;DHT22;8702;48.130;-1.696;2023-05-07T04:03:35;15.90;99.90
17174;DHT22;8702;48.130;-1.696;2023-05-07T04:06:02;15.90;99.90
17174;DHT22;8702;48.130;-1.696;2023-05-07T04:08:30;15.80;99.90
17174;DHT22;8702;48.130;-1.696;2023-05-07T04:10:57;15.80;99.90
17174;DHT22;8702;48.130;-1.696;2023-05-07T04:13:25;15.80;99.90
17174;DHT22;8702;48.130;-1.696;2023-05-07T04:15:52;15.80;99.90
17174;DHT22;8702;48.130;-1.696;2023-05-07T04:18:19;15.90;99.90
17174;DHT22;8702;48.130;-1.696;2023-05-07T04:20:47;15.90;99.90
17174;DHT22;8702;48.130;-1.696;2023-05-07T06:11:34;16.20;99.90
17174;DHT22;8702;48.130;-1.696;2023-05-07T06:18:56;16.10;99.90
17174;DHT22;8702;48.130;-1.696;2023-05-07T06:21:23;16.10;99.90
17174;DHT22;8702;48.130;-1.696;2023-05-07T06:26:19;16.30;99.90
17174;DHT22;8702;48.130;-1.696;2023-05-07T06:28:48;16.30;99.90
17174;DHT22;8702;48.130;-1.696;2023-05-07T06:31:16;16.40;99.90
17174;DHT22;8702;48.130;-1.696;2023-05-07T06:33:46;16.60;99.90
17174;DHT22;8702;48.130;-1.696;2023-05-07T06:36:13;16.50;99.90
17174;DHT22;8702;48.130;-1.696;2023-05-07T06:38:40;16.40;99.90
17174;DHT22;8702;48.130;-1.696;2023-05-07T06:41:07;16.50;99.90
17174;DHT22;8702;48.130;-1.696;2023-05-07T06:43:35;16.60;99.90
17174;DHT22;8702;48.130;-1.696;2023-05-07T06:46:02;16.60;99.90
17174;DHT22;8702;48.130;-1.696;2023-05-07T06:48:32;16.60;99.90
17174;DHT22;8702;48.130;-1.696;2023-05-07T06:50:59;16.60;99.90
17174;DHT22;8702;48.130;-1.696;2023-05-07T06:53:26;16.60;99.90
17174;DHT22;8702;48.130;-1.696;2023-05-07T06:55:54;16.60;99.90
17174;DHT22;8702;48.130;-1.696;2023-05-07T06:58:21;16.60;99.90
17174;DHT22;8702;48.130;-1.696;2023-05-07T07:00:49;16.50;99.90
17174;DHT22;8702;48.130;-1.696;2023-05-07T07:03:17;16.40;99.90
17174;DHT22;8702;48.130;-1.696;2023-05-07T07:05:44;16.30;99.90
17174;DHT22;8702;48.130;-1.696;2023-05-07T07:08:11;16.40;99.90
17174;DHT22;8702;48.130;-1.696;2023-05-07T07:10:38;15.60;99.90
17174;DHT22;8702;48.130;-1.696;2023-05-07T07:13:05;16.40;99.90
17174;DHT22;8702;48.130;-1.696;2023-05-07T07:15:32;16.40;99.90
17174;DHT22;8702;48.130;-1.696;2023-05-07T07:18:00;16.40;99.90
17174;DHT22;8702;48.130;-1.696;2023-05-07T07:20:27;16.40;99.90
17174;DHT22;8702;48.130;-1.696;2023-05-07T07:22:54;16.50;99.90
17174;DHT22;8702;48.130;-1.696;2023-05-07T07:25:21;16.60;99.90
17174;DHT22;8702;48.130;-1.696;2023-05-07T07:27:49;16.50;99.90
17174;DHT22;8702;48.130;-1.696;2023-05-07T07:30:16;16.40;99.90
17174;DHT22;8702;48.130;-1.696;2023-05-07T07:32:43;16.40;99.90
17174;DHT22;8702;48.130;-1.696;2023-05-07T07:35:11;16.40;99.90
17174;DHT22;8702;48.130;-1.696;2023-05-07T07:37:38;16.40;99.90
17174;DHT22;8702;48.130;-1.696;2023-05-07T07:40:06;16.40;99.90
17174;DHT22;8702;48.130;-1.696;2023-05-07T07:42:34;16.40;99.90
17174;DHT22;8702;48.130;-1.696;2023-05-07T07:45:00;16.50;99.90
17174;DHT22;8702;48.130;-1.696;2023-05-07T07:47:28;16.50;99.90
17174;DHT22;8702;48.130;-1.696;2023-05-07T07:49:55;16.50;99.90
17174;DHT22;8702;48.130;-1.696;2023-05-07T07:52:23;16.50;99.90
17174;DHT22;8702;48.130;-1.696;2023-05-07T07:54:50;16.50;99.90
17174;DHT22;8702;48.130;-1.696;2023-05-07T07:57:17;16.50;99.90
17174;DHT22;8702;48.130;-1.696;2023-05-07T07:59:44;16.60;99.90
17174;DHT22;8702;48.130;-1.696;2023-05-07T08:02:11;16.70;99.90
17174;DHT22;8702;48.130;-1.696;2023-05-07T08:04:38;16.70;99.90
17174;DHT22;8702;48.130;-1.696;2023-05-07T08:07:05;16.60;99.90
17174;DHT22;8702;48.130;-1.696;2023-05-07T08:09:33;16.40;99.90
17174;DHT22;8702;48.130;-1.696;2023-05-07T08:12:00;16.30;99.90
17174;DHT22;8702;48.130;-1.696;2023-05-07T08:14:27;16.30;99.90
17174;DHT22;8702;48.130;-1.696;2023-05-07T08:16:55;16.20;99.90
17174;DHT22;8702;48.130;-1.696;2023-05-07T08:19:25;16.30;99.90
17174;DHT22;8702;48.130;-1.696;2023-05-07T08:21:52;16.10;99.90
17174;DHT22;8702;48.130;-1.696;2023-05-07T08:24:19;16.00;99.90
17174;DHT22;8702;48.130;-1.696;2023-05-07T08:26:47;16.10;99.90
17174;DHT22;8702;48.130;-1.696;2023-05-07T08:29:15;16.10;99.90
17174;DHT22;8702;48.130;-1.696;2023-05-07T08:31:42;16.10;99.90
17174;DHT22;8702;48.130;-1.696;2023-05-07T08:34:09;16.10;99.90
17174;DHT22;8702;48.130;-1.696;2023-05-07T08:36:36;16.10;99.90
17174;DHT22;8702;48.130;-1.696;2023-05-07T08:39:03;16.00;99.90
17174;DHT22;8702;48.130;-1.696;2023-05-07T08:41:30;16.00;99.90
17174;DHT22;8702;48.130;-1.696;2023-05-07T08:43:59;16.20;99.90
17174;DHT22;8702;48.130;-1.696;2023-05-07T08:46:32;16.10;99.90
17174;DHT22;8702;48.130;-1.696;2023-05-07T08:48:59;16.30;99.90
17174;DHT22;8702;48.130;-1.696;2023-05-07T08:51:26;16.40;99.90
17174;DHT22;8702;48.130;-1.696;2023-05-07T08:53:53;16.40;99.90
17174;DHT22;8702;48.130;-1.696;2023-05-07T08:56:20;16.30;99.90
17174;DHT22;8702;48.130;-1.696;2023-05-07T08:58:48;16.40;99.90
17174;DHT22;8702;48.130;-1.696;2023-05-07T09:01:17;16.30;99.90
17174;DHT22;8702;48.130;-1.696;2023-05-07T09:03:44;16.50;99.90
17174;DHT22;8702;48.130;-1.696;2023-05-07T09:06:12;16.50;99.90
17174;DHT22;8702;48.130;-1.696;2023-05-07T09:08:39;16.60;99.90
17174;DHT22;8702;48.130;-1.696;2023-05-07T09:11:06;16.60;99.90
17174;DHT22;8702;48.130;-1.696;2023-05-07T09:13:33;16.70;99.90
17174;DHT22;8702;48.130;-1.696;2023-05-07T09:16:10;16.80;99.90
17174;DHT22;8702;48.130;-1.696;2023-05-07T09:18:42;16.80;99.90
17174;DHT22;8702;48.130;-1.696;2023-05-07T09:21:10;16.90;99.90
17174;DHT22;8702;48.130;-1.696;2023-05-07T09:23:38;17.00;99.90
17174;DHT22;8702;48.130;-1.696;2023-05-07T09:26:06;16.90;99.90
17174;DHT22;8702;48.130;-1.696;2023-05-07T09:28:38;16.90;99.90
17174;DHT22;8702;48.130;-1.696;2023-05-07T09:31:06;16.80;99.90
17174;DHT22;8702;48.130;-1.696;2023-05-07T09:33:33;16.80;99.90
17174;DHT22;8702;48.130;-1.696;2023-05-07T09:36:04;16.90;99.90
17174;DHT22;8702;48.130;-1.696;2023-05-07T09:38:32;16.90;99.90
17174;DHT22;8702;48.130;-1.696;2023-05-07T09:41:02;17.00;99.90
17174;DHT22;8702;48.130;-1.696;2023-05-07T09:43:32;16.90;99.90
17174;DHT22;8702;48.130;-1.696;2023-05-07T09:46:02;17.00;99.90
17174;DHT22;8702;48.130;-1.696;2023-05-07T09:48:30;17.00;99.90
17174;DHT22;8702;48.130;-1.696;2023-05-07T09:51:03;17.00;99.90
17174;DHT22;8702;48.130;-1.696;2023-05-07T09:53:33;17.10;99.90
17174;DHT22;8702;48.130;-1.696;2023-05-07T09:56:01;17.10;99.90
17174;DHT22;8702;48.130;-1.696;2023-05-07T09:58:29;17.00;99.90
17174;DHT22;8702;48.130;-1.696;2023-05-07T10:00:57;17.10;99.90
17174;DHT22;8702;48.130;-1.696;2023-05-07T10:03:26;17.00;99.90
17174;DHT22;8702;48.130;-1.696;2023-05-07T10:05:55;16.90;99.90
17174;DHT22;8702;48.130;-1.696;2023-05-07T10:08:24;17.00;99.90
17174;DHT22;8702;48.130;-1.696;2023-05-07T10:10:51;17.20;99.90
17174;DHT22;8702;48.130;-1.696;2023-05-07T10:13:19;17.30;99.90
17174;DHT22;8702;48.130;-1.696;2023-05-07T10:15:47;17.30;99.90
17174;DHT22;8702;48.130;-1.696;2023-05-07T10:18:15;17.30;99.90
17174;DHT22;8702;48.130;-1.696;2023-05-07T10:20:45;17.20;99.90
17174;DHT22;8702;48.130;-1.696;2023-05-07T10:23:14;17.30;99.90
17174;DHT22;8702;48.130;-1.696;2023-05-07T10:25:45;17.30;99.90
17174;DHT22;8702;48.130;-1.696;2023-05-07T10:28:13;17.30;99.90
17174;DHT22;8702;48.130;-1.696;2023-05-07T10:30:52;17.40;99.90
17174;DHT22;8702;48.130;-1.696;2023-05-07T10:33:24;17.50;99.90
17174;DHT22;8702;48.130;-1.696;2023-05-07T10:35:57;17.50;99.90
17174;DHT22;8702;48.130;-1.696;2023-05-07T10:38:24;17.60;99.90
17174;DHT22;8702;48.130;-1.696;2023-05-07T10:40:53;17.70;99.90
17174;DHT22;8702;48.130;-1.696;2023-05-07T10:43:20;17.70;99.90
17174;DHT22;8702;48.130;-1.696;2023-05-07T10:46:13;17.70;99.90
17174;DHT22;8702;48.130;-1.696;2023-05-07T10:49:13;17.60;99.90
17174;DHT22;8702;48.130;-1.696;2023-05-07T10:51:41;17.40;99.90
17174;DHT22;8702;48.130;-1.696;2023-05-07T10:54:21;17.40;99.90
17174;DHT22;8702;48.130;-1.696;2023-05-07T10:56:50;17.40;99.90
17174;DHT22;8702;48.130;-1.696;2023-05-07T10:59:36;17.40;99.90
17174;DHT22;8702;48.130;-1.696;2023-05-07T11:02:09;17.50;99.90
17174;DHT22;8702;48.130;-1.696;2023-05-07T11:04:37;17.70;99.90
17174;DHT22;8702;48.130;-1.696;2023-05-07T11:07:24;17.70;99.90
17174;DHT22;8702;48.130;-1.696;2023-05-07T11:09:58;17.60;99.90
17174;DHT22;8702;48.130;-1.696;2023-05-07T11:12:50;17.70;99.90
17174;DHT22;8702;48.130;-1.696;2023-05-07T11:15:38;17.50;99.90
17174;DHT22;8702;48.130;-1.696;2023-05-07T11:18:07;17.60;99.90
17174;DHT22;8702;48.130;-1.696;2023-05-07T11:20:49;17.60;99.90
17174;DHT22;8702;48.130;-1.696;2023-05-07T11:23:57;17.60;99.90
17174;DHT22;8702;48.130;-1.696;2023-05-07T11:26:26;17.40;99.90
17174;DHT22;8702;48.130;-1.696;2023-05-07T11:28:55;17.30;99.90
17174;DHT22;8702;48.130;-1.696;2023-05-07T11:31:24;17.50;99.90
17174;DHT22;8702;48.130;-1.696;2023-05-07T11:33:52;17.60;99.90
17174;DHT22;8702;48.130;-1.696;2023-05-07T11:36:21;17.80;99.90
17174;DHT22;8702;48.130;-1.696;2023-05-07T11:38:48;17.90;99.90
17174;DHT22;8702;48.130;-1.696;2023-05-07T11:41:16;18.00;99.90
17174;DHT22;8702;48.130;-1.696;2023-05-07T11:43:57;18.00;99.90
17174;DHT22;8702;48.130;-1.696;2023-05-07T11:46:25;18.00;99.90
17174;DHT22;8702;48.130;-1.696;2023-05-07T11:48:53;18.00;99.90
17174;DHT22;8702;48.130;-1.696;2023-05-07T11:51:21;18.00;99.90
17174;DHT22;8702;48.130;-1.696;2023-05-07T11:53:48;18.10;99.90
17174;DHT22;8702;48.130;-1.696;2023-05-07T11:56:16;18.00;99.90
17174;DHT22;8702;48.130;-1.696;2023-05-07T11:58:44;17.80;99.90
17174;DHT22;8702;48.130;-1.696;2023-05-07T12:01:13;17.70;99.90
17174;DHT22;8702;48.130;-1.696;2023-05-07T12:03:43;17.60;99.90
17174;DHT22;8702;48.130;-1.696;2023-05-07T12:06:14;17.60;99.90
17174;DHT22;8702;48.130;-1.696;2023-05-07T12:08:43;17.60;99.90
17174;DHT22;8702;48.130;-1.696;2023-05-07T12:11:13;17.60;99.90
17174;DHT22;8702;48.130;-1.696;2023-05-07T12:13:41;17.50;99.90
17174;DHT22;8702;48.130;-1.696;2023-05-07T12:16:08;17.50;99.90
17174;DHT22;8702;48.130;-1.696;2023-05-07T12:18:37;17.60;99.90
17174;DHT22;8702;48.130;-1.696;2023-05-07T12:21:05;17.70;99.90
17174;DHT22;8702;48.130;-1.696;2023-05-07T12:23:33;17.80;99.90
17174;DHT22;8702;48.130;-1.696;2023-05-07T12:26:01;17.70;99.90
17174;DHT22;8702;48.130;-1.696;2023-05-07T12:28:28;17.70;99.90
17174;DHT22;8702;48.130;-1.696;2023-05-07T12:30:56;17.90;99.90
17174;DHT22;8702;48.130;-1.696;2023-05-07T12:33:25;18.00;99.90
17174;DHT22;8702;48.130;-1.696;2023-05-07T12:35:55;18.00;99.90
17174;DHT22;8702;48.130;-1.696;2023-05-07T12:38:22;18.00;99.90
17174;DHT22;8702;48.130;-1.696;2023-05-07T12:40:53;18.10;99.90
17174;DHT22;8702;48.130;-1.696;2023-05-07T12:43:21;18.30;99.90
17174;DHT22;8702;48.130;-1.696;2023-05-07T12:45:51;18.20;99.90
17174;DHT22;8702;48.130;-1.696;2023-05-07T12:48:19;18.10;99.90
17174;DHT22;8702;48.130;-1.696;2023-05-07T12:50:49;18.30;99.90
17174;DHT22;8702;48.130;-1.696;2023-05-07T12:53:20;18.40;99.90
17174;DHT22;8702;48.130;-1.696;2023-05-07T12:55:49;18.50;99.90
17174;DHT22;8702;48.130;-1.696;2023-05-07T12:58:17;18.70;99.90
17174;DHT22;8702;48.130;-1.696;2023-05-07T13:00:45;18.70;99.90
17174;DHT22;8702;48.130;-1.696;2023-05-07T13:03:22;18.80;99.90
17174;DHT22;8702;48.130;-1.696;2023-05-07T13:05:50;18.80;99.90
17174;DHT22;8702;48.130;-1.696;2023-05-07T13:08:30;18.90;99.90
17174;DHT22;8702;48.130;-1.696;2023-05-07T13:10:58;18.90;99.90
17174;DHT22;8702;48.130;-1.696;2023-05-07T13:13:25;19.10;99.90
17174;DHT22;8702;48.130;-1.696;2023-05-07T13:15:52;19.10;99.90
17174;DHT22;8702;48.130;-1.696;2023-05-07T13:18:19;19.10;99.90
17174;DHT22;8702;48.130;-1.696;2023-05-07T13:20:46;19.30;99.90
17174;DHT22;8702;48.130;-1.696;2023-05-07T13:23:13;18.90;99.90
17174;DHT22;8702;48.130;-1.696;2023-05-07T13:25:42;18.80;99.90
17174;DHT22;8702;48.130;-1.696;2023-05-07T13:28:09;18.80;99.90
17174;DHT22;8702;48.130;-1.696;2023-05-07T13:30:36;18.80;99.90
17174;DHT22;8702;48.130;-1.696;2023-05-07T13:33:03;18.90;99.90
17174;DHT22;8702;48.130;-1.696;2023-05-07T13:35:30;19.00;99.90
17174;DHT22;8702;48.130;-1.696;2023-05-07T13:37:57;19.00;99.90
17174;DHT22;8702;48.130;-1.696;2023-05-07T13:40:24;19.00;99.90
17174;DHT22;8702;48.130;-1.696;2023-05-07T13:42:53;18.90;99.90
17174;DHT22;8702;48.130;-1.696;2023-05-07T13:45:20;18.80;99.90
17174;DHT22;8702;48.130;-1.696;2023-05-07T13:47:51;19.00;99.90
17174;DHT22;8702;48.130;-1.696;2023-05-07T13:50:18;19.00;99.90
17174;DHT22;8702;48.130;-1.696;2023-05-07T13:52:45;19.00;99.90
17174;DHT22;8702;48.130;-1.696;2023-05-07T13:55:16;19.10;99.90
17174;DHT22;8702;48.130;-1.696;2023-05-07T13:57:43;19.40;99.90
17174;DHT22;8702;48.130;-1.696;2023-05-07T14:00:13;19.40;99.90
17174;DHT22;8702;48.130;-1.696;2023-05-07T14:02:41;19.40;99.90
17174;DHT22;8702;48.130;-1.696;2023-05-07T14:05:08;19.60;99.90
17174;DHT22;8702;48.130;-1.696;2023-05-07T14:07:35;19.60;99.90
17174;DHT22;8702;48.130;-1.696;2023-05-07T14:10:03;19.40;99.90
17174;DHT22;8702;48.130;-1.696;2023-05-07T14:12:31;19.30;99.90
17174;DHT22;8702;48.130;-1.696;2023-05-07T14:14:58;19.30;99.90
17174;DHT22;8702;48.130;-1.696;2023-05-07T14:17:29;19.30;99.90
17174;DHT22;8702;48.130;-1.696;2023-05-07T14:19:56;19.10;99.90
17174;DHT22;8702;48.130;-1.696;2023-05-07T14:22:23;19.00;99.90
17174;DHT22;8702;48.130;-1.696;2023-05-07T14:24:51;19.00;99.90
17174;DHT22;8702;48.130;-1.696;2023-05-07T14:27:20;18.80;99.90
17174;DHT22;8702;48.130;-1.696;2023-05-07T14:29:47;18.80;99.90
17174;DHT22;8702;48.130;-1.696;2023-05-07T14:32:16;18.70;99.90
17174;DHT22;8702;48.130;-1.696;2023-05-07T14:34:45;18.80;99.90
17174;DHT22;8702;48.130;-1.696;2023-05-07T14:37:13;18.90;99.90
17174;DHT22;8702;48.130;-1.696;2023-05-07T14:39:40;18.80;99.90
17174;DHT22;8702;48.130;-1.696;2023-05-07T14:42:07;18.80;99.90
17174;DHT22;8702;48.130;-1.696;2023-05-07T14:44:34;18.80;99.90
17174;DHT22;8702;48.130;-1.696;2023-05-07T14:47:01;18.80;99.90
17174;DHT22;8702;48.130;-1.696;2023-05-07T14:49:28;18.90;99.90
17174;DHT22;8702;48.130;-1.696;2023-05-07T14:51:57;18.70;99.90
17174;DHT22;8702;48.130;-1.696;2023-05-07T14:54:25;18.80;99.90
17174;DHT22;8702;48.130;-1.696;2023-05-07T14:56:52;19.00;99.90
17174;DHT22;8702;48.130;-1.696;2023-05-07T14:59:19;19.20;99.90
17174;DHT22;8702;48.130;-1.696;2023-05-07T15:01:46;19.30;99.90
17174;DHT22;8702;48.130;-1.696;2023-05-07T15:04:13;19.40;99.90
17174;DHT22;8702;48.130;-1.696;2023-05-07T15:06:40;19.80;99.90
17174;DHT22;8702;48.130;-1.696;2023-05-07T15:09:09;20.20;99.90
17174;DHT22;8702;48.130;-1.696;2023-05-07T15:11:36;20.80;99.90
17174;DHT22;8702;48.130;-1.696;2023-05-07T15:14:03;21.20;99.90
17174;DHT22;8702;48.130;-1.696;2023-05-07T15:16:30;21.40;99.90
17174;DHT22;8702;48.130;-1.696;2023-05-07T15:18:58;21.80;99.90
17174;DHT22;8702;48.130;-1.696;2023-05-07T15:21:25;21.80;99.90
17174;DHT22;8702;48.130;-1.696;2023-05-07T15:23:53;22.20;99.90
17174;DHT22;8702;48.130;-1.696;2023-05-07T15:26:21;21.90;99.90
17174;DHT22;8702;48.130;-1.696;2023-05-07T15:28:48;21.70;99.90
17174;DHT22;8702;48.130;-1.696;2023-05-07T15:31:15;21.80;99.90
17174;DHT22;8702;48.130;-1.696;2023-05-07T15:33:43;21.90;99.90
17174;DHT22;8702;48.130;-1.696;2023-05-07T15:36:10;22.00;99.90
17174;DHT22;8702;48.130;-1.696;2023-05-07T15:38:37;22.00;99.90
17174;DHT22;8702;48.130;-1.696;2023-05-07T15:41:04;22.10;99.90
17174;DHT22;8702;48.130;-1.696;2023-05-07T15:43:32;22.10;99.90
17174;DHT22;8702;48.130;-1.696;2023-05-07T15:45:59;22.00;99.90
17174;DHT22;8702;48.130;-1.696;2023-05-07T15:48:26;22.00;99.90
17174;DHT22;8702;48.130;-1.696;2023-05-07T15:50:53;21.90;99.90
17174;DHT22;8702;48.130;-1.696;2023-05-07T15:53:20;21.70;99.90
17174;DHT22;8702;48.130;-1.696;2023-05-07T15:55:47;21.50;99.90
17174;DHT22;8702;48.130;-1.696;2023-05-07T15:58:14;21.30;99.90
17174;DHT22;8702;48.130;-1.696;2023-05-07T16:00:46;21.10;99.90
17174;DHT22;8702;48.130;-1.696;2023-05-07T18:07:10;21.20;99.90
17174;DHT22;8702;48.130;-1.696;2023-05-07T18:09:38;21.20;99.90
17174;DHT22;8702;48.130;-1.696;2023-05-07T18:12:05;20.80;99.90
17174;DHT22;8702;48.130;-1.696;2023-05-07T18:14:32;20.70;99.90
17174;DHT22;8702;48.130;-1.696;2023-05-07T18:17:01;20.70;99.90
17174;DHT22;8702;48.130;-1.696;2023-05-07T18:19:28;20.40;99.90
17174;DHT22;8702;48.130;-1.696;2023-05-07T18:21:55;20.30;99.90
17174;DHT22;8702;48.130;-1.696;2023-05-07T18:24:22;20.10;99.90
17174;DHT22;8702;48.130;-1.696;2023-05-07T18:26:49;20.10;99.90
17174;DHT22;8702;48.130;-1.696;2023-05-07T18:29:16;20.00;99.90
17174;DHT22;8702;48.130;-1.696;2023-05-07T18:31:43;19.90;99.90
17174;DHT22;8702;48.130;-1.696;2023-05-07T18:34:12;19.80;99.90
17174;DHT22;8702;48.130;-1.696;2023-05-07T18:36:39;19.70;99.90
17174;DHT22;8702;48.130;-1.696;2023-05-07T18:39:06;19.60;99.90
17174;DHT22;8702;48.130;-1.696;2023-05-07T18:41:33;19.50;99.90
17174;DHT22;8702;48.130;-1.696;2023-05-07T18:44:01;19.50;99.90
17174;DHT22;8702;48.130;-1.696;2023-05-07T18:46:28;19.40;99.90
17174;DHT22;8702;48.130;-1.696;2023-05-07T18:48:54;19.30;99.90
17174;DHT22;8702;48.130;-1.696;2023-05-07T18:51:23;19.20;99.90
17174;DHT22;8702;48.130;-1.696;2023-05-07T18:53:50;19.00;99.90
17174;DHT22;8702;48.130;-1.696;2023-05-07T18:56:17;19.00;99.90
17174;DHT22;8702;48.130;-1.696;2023-05-07T18:58:44;18.90;99.90
17174;DHT22;8702;48.130;-1.696;2023-05-07T19:01:11;18.90;99.90
17174;DHT22;8702;48.130;-1.696;2023-05-07T19:03:37;18.90;99.90
17174;DHT22;8702;48.130;-1.696;2023-05-07T19:06:04;18.80;99.90
17174;DHT22;8702;48.130;-1.696;2023-05-07T19:08:33;18.70;99.90
17174;DHT22;8702;48.130;-1.696;2023-05-07T19:11:00;18.50;99.90
17174;DHT22;8702;48.130;-1.696;2023-05-07T19:13:28;18.50;99.90
17174;DHT22;8702;48.130;-1.696;2023-05-07T19:15:55;18.50;99.90
17174;DHT22;8702;48.130;-1.696;2023-05-07T19:18:22;18.40;99.90
17174;DHT22;8702;48.130;-1.696;2023-05-07T19:20:49;18.30;99.90
17174;DHT22;8702;48.130;-1.696;2023-05-07T19:23:16;18.30;99.90
17174;DHT22;8702;48.130;-1.696;2023-05-07T19:25:44;18.20;99.90
17174;DHT22;8702;48.130;-1.696;2023-05-07T19:28:13;18.10;99.90
17174;DHT22;8702;48.130;-1.696;2023-05-07T19:30:40;18.00;99.90
17174;DHT22;8702;48.130;-1.696;2023-05-07T19:33:07;17.90;99.90
17174;DHT22;8702;48.130;-1.696;2023-05-07T19:35:34;17.90;99.90
17174;DHT22;8702;48.130;-1.696;2023-05-07T19:38:01;17.80;99.90